Time;durP1;ratioP1;P1;durP2;ratioP2;P2;SDS_P1;SDS_P2;PMS_P1;PMS_P2;Temp;Humidity;BMP_temperature;BMP_pressure;BME280_temperature;BME280_humidity;BME280_pressure;Samples;Min_cycle;Max_cycle;Signal;HPM_P1;HPM_P2
2024/01/13 00:00:30;;;;;;;7.95;2.35;;;2.80;99.90;;;2.43;100.00;101649.13;6098647;23;20155;-70
2024/01/13 00:03:00;;;;;;;10.57;2.50;;;2.50;99.90;;;2.34;100.00;101650.78;6098879;23;20703;-70
2024/01/13 00:05:29;;;;;;;3.50;3.13;;;2.30;99.90;;;2.16;100.00;101649.66;6104725;23;20522;-70
2024/01/13 00:07:58;;;;;;;5.65;4.22;;;2.10;99.90;;;2.12;100.00;101635.72;6108075;23;20152;-71
2024/01/13 00:10:27;;;;;;;11.30;3.65;;;2.10;99.90;;;2.06;100.00;101644.25;6099792;23;20171;-70
2024/01/13 00:12:56;;;;;;;8.63;3.30;;;2.00;99.90;;;2.14;100.00;101631.09;6100223;23;20253;-71
2024/01/13 00:15:26;;;;;;;2.65;1.58;;;2.00;99.90;;;2.12;100.00;101634.88;6098492;23;20187;-71
2024/01/13 00:17:55;;;;;;;1.40;1.30;;;2.10;99.90;;;2.14;100.00;101635.59;6098612;23;20194;-70
2024/01/13 00:20:24;;;;;;;3.08;2.25;;;2.10;99.90;;;2.09;100.00;101635.97;6098524;23;20210;-69
2024/01/13 00:22:53;;;;;;;9.07;3.75;;;2.00;99.90;;;2.10;100.00;101640.34;6098206;23;20259;-71
2024/01/13 00:25:22;;;;;;;19.77;16.92;;;2.00;99.90;;;2.54;100.00;101635.72;6098954;23;20156;-71
2024/01/13 00:27:50;;;;;;;4.13;3.20;;;2.30;99.90;;;2.96;100.00;101637.31;6098979;23;20510;-71
2024/01/13 00:30:19;;;;;;;17.77;3.35;;;2.80;99.90;;;2.47;100.00;101638.03;6098289;23;20174;-71
2024/01/13 00:32:50;;;;;;;12.15;3.45;;;2.40;99.90;;;2.30;100.00;101629.78;6098225;23;20159;-72
2024/01/13 00:35:19;;;;;;;4.53;2.42;;;2.30;99.90;;;2.31;100.00;101631.50;6098163;23;20239;-71
2024/01/13 00:37:47;;;;;;;2.65;2.47;;;2.20;99.90;;;2.29;100.00;101639.63;6098593;23;20155;-71
2024/01/13 00:40:16;;;;;;;5.63;4.55;;;2.20;99.90;;;2.28;100.00;101632.59;6098401;23;20194;-72
2024/01/13 00:42:45;;;;;;;6.10;2.97;;;2.20;99.90;;;2.23;100.00;101639.31;6098128;23;20175;-70
2024/01/13 00:45:14;;;;;;;8.38;4.95;;;2.20;99.90;;;2.15;100.00;101627.44;6097965;23;20162;-70
2024/01/13 00:47:43;;;;;;;3.58;1.45;;;2.10;99.90;;;2.21;100.00;101628.75;6098556;23;20171;-71
2024/01/13 00:50:14;;;;;;;3.90;1.88;;;2.10;99.90;;;2.27;100.00;101624.72;6098714;23;20491;-71
2024/01/13 00:52:43;;;;;;;22.77;1.73;;;2.20;99.90;;;2.28;100.00;101619.22;6102469;23;20159;-73
2024/01/13 00:55:11;;;;;;;2.00;1.50;;;2.20;99.90;;;2.26;100.00;101623.03;6101469;23;20174;-70
2024/01/13 00:57:40;;;;;;;5.78;2.85;;;2.20;99.90;;;2.30;100.00;101621.78;6101645;23;20164;-71
2024/01/13 01:00:10;;;;;;;5.38;3.72;;;2.20;99.90;;;2.32;100.00;101623.38;6098945;23;20231;-70
2024/01/13 01:02:39;;;;;;;4.60;2.40;;;2.20;99.90;;;2.29;100.00;101617.41;6098260;23;20493;-71
2024/01/13 01:05:08;;;;;;;4.72;2.78;;;2.20;99.90;;;2.25;100.00;101615.97;6098211;23;20164;-70
2024/01/13 01:07:39;;;;;;;2.85;2.65;;;2.20;99.90;;;2.27;100.00;101614.91;6098508;23;20159;-71
2024/01/13 01:10:09;;;;;;;1.00;0.90;;;2.20;99.90;;;2.29;100.00;101607.56;6098072;23;20152;-71
2024/01/13 01:12:38;;;;;;;4.72;1.58;;;2.20;99.90;;;2.35;100.00;101606.22;6099265;23;20152;-70
2024/01/13 01:15:08;;;;;;;3.03;2.83;;;2.20;99.90;;;2.69;100.00;101601.47;6098159;23;20643;-72
2024/01/13 01:17:37;;;;;;;2.95;2.72;;;2.50;99.90;;;2.48;100.00;101601.50;6098544;23;20613;-72
2024/01/13 01:20:07;;;;;;;1.20;1.10;;;2.50;99.90;;;2.62;100.00;101590.44;6098371;23;20187;-71
2024/01/13 01:22:37;;;;;;;1.38;1.27;;;2.60;99.90;;;2.51;100.00;101591.41;6098080;23;20175;-70
2024/01/13 01:25:07;;;;;;;2.10;1.95;;;2.50;99.90;;;2.42;100.00;101588.69;6098105;23;20160;-70
2024/01/13 01:27:36;;;;;;;2.47;1.55;;;2.40;99.90;;;2.46;100.00;101582.94;6098137;23;20159;-70
2024/01/13 01:30:06;;;;;;;1.40;1.30;;;2.40;99.90;;;2.42;100.00;101581.50;6098433;23;20155;-71
2024/01/13 01:32:35;;;;;;;11.10;2.33;;;2.40;99.90;;;2.41;100.00;101590.50;6098496;23;20207;-72
2024/01/13 01:35:06;;;;;;;3.80;2.78;;;2.40;99.90;;;2.31;100.00;101578.06;6098544;23;20617;-68
2024/01/13 01:37:36;;;;;;;2.92;2.55;;;2.30;99.90;;;2.28;100.00;101589.84;6098458;23;20210;-72
2024/01/13 01:40:08;;;;;;;1.90;1.45;;;2.20;99.90;;;2.25;100.00;101578.59;6098182;23;20183;-71
2024/01/13 01:42:37;;;;;;;2.65;2.38;;;2.20;99.90;;;2.33;100.00;101576.09;6097793;23;20207;-71
2024/01/13 01:45:07;;;;;;;2.47;1.67;;;2.30;99.90;;;2.32;100.00;101571.75;6097871;23;20226;-71
2024/01/13 01:47:41;;;;;;;10.05;2.17;;;2.20;99.90;;;2.40;100.00;101587.97;6097632;23;20156;-70
2024/01/13 01:50:11;;;;;;;0.90;0.73;;;2.30;99.90;;;2.28;100.00;101562.28;6120537;23;20674;-70
2024/01/13 01:52:41;;;;;;;1.75;1.02;;;2.20;99.90;;;2.33;100.00;101563.59;6098001;23;20171;-71
2024/01/13 01:55:11;;;;;;;3.05;1.35;;;2.20;99.90;;;2.33;100.00;101563.59;6097694;23;20191;-71
2024/01/13 01:57:40;;;;;;;0.98;0.80;;;2.30;99.90;;;2.33;100.00;101560.94;6097928;23;20181;-71
2024/01/13 02:00:11;;;;;;;2.85;2.65;;;2.20;99.90;;;2.36;100.00;101551.81;6097776;23;20151;-71
2024/01/13 02:02:40;;;;;;;13.10;4.07;;;2.30;99.90;;;2.45;100.00;101545.66;6098616;23;20183;-71
2024/01/13 02:05:10;;;;;;;0.80;0.60;;;2.40;99.90;;;2.41;100.00;101546.91;6098094;23;20156;-70
2024/01/13 02:07:38;;;;;;;1.98;1.45;;;2.30;99.90;;;2.41;100.00;101552.25;6098190;23;20148;-70
2024/01/13 02:10:09;;;;;;;1.25;1.10;;;2.40;99.90;;;2.45;100.00;101548.34;6097524;23;20152;-71
2024/01/13 02:12:39;;;;;;;2.92;1.50;;;2.30;99.90;;;2.35;100.00;101545.63;6097880;23;20469;-71
2024/01/13 02:15:09;;;;;;;11.55;1.75;;;2.30;99.90;;;2.29;100.00;101542.63;6097650;23;20267;-70
2024/01/13 02:17:38;;;;;;;1.85;0.95;;;2.30;99.90;;;2.28;100.00;101546.28;6097491;23;20160;-71
2024/01/13 02:20:10;;;;;;;0.90;0.80;;;2.20;99.90;;;2.31;100.00;101538.00;6097398;23;20243;-69
2024/01/13 02:22:41;;;;;;;4.22;1.67;;;2.20;99.90;;;2.34;100.00;101529.72;6097307;23;20176;-71
2024/01/13 02:25:11;;;;;;;2.10;2.00;;;2.30;99.90;;;2.38;100.00;101526.66;6097260;23;20155;-71
2024/01/13 02:27:39;;;;;;;2.55;2.25;;;2.30;99.90;;;2.41;100.00;101520.22;6096973;23;20750;-70
2024/01/13 02:30:09;;;;;;;1.63;0.85;;;2.30;99.90;;;2.42;100.00;101511.22;6097279;23;20437;-71
2024/01/13 02:32:38;;;;;;;1.00;0.90;;;2.30;99.90;;;2.47;100.00;101514.34;6097278;23;20151;-70
2024/01/13 02:35:09;;;;;;;11.73;1.35;;;2.30;99.90;;;2.46;100.00;101513.50;6097048;23;20187;-70
2024/01/13 02:37:38;;;;;;;4.68;2.90;;;2.40;99.90;;;2.77;100.00;101500.06;6096612;23;20148;-70
2024/01/13 02:40:10;;;;;;;1.42;1.33;;;2.60;99.90;;;2.63;100.00;101504.81;6096959;23;20179;-70
2024/01/13 02:42:38;;;;;;;1.40;1.27;;;2.60;99.90;;;2.49;100.00;101499.00;6097021;23;20156;-71
2024/01/13 02:45:08;;;;;;;21.90;1.98;;;2.40;99.90;;;2.53;100.00;101492.41;6096678;23;20156;-70
2024/01/13 02:47:43;;;;;;;1.15;1.05;;;2.50;99.90;;;2.43;100.00;101472.81;6097333;23;20174;-69
2024/01/13 02:50:13;;;;;;;1.10;0.85;;;2.40;99.90;;;2.46;100.00;101478.75;6097337;23;20156;-70
2024/01/13 02:52:44;;;;;;;1.70;0.60;;;2.40;99.90;;;2.55;100.00;101461.06;6095725;23;20615;-71
2024/01/13 02:55:14;;;;;;;1.90;1.48;;;2.50;99.90;;;2.50;100.00;101471.31;6097480;23;20592;-69
2024/01/13 02:57:43;;;;;;;11.50;1.65;;;2.40;99.90;;;2.49;100.00;101466.94;6096978;23;20489;-69
2024/01/13 03:00:13;;;;;;;2.60;1.77;;;2.40;99.90;;;2.48;100.00;101457.22;6097494;23;20160;-70
2024/01/13 03:02:42;;;;;;;1.85;1.75;;;2.40;99.90;;;2.46;100.00;101449.38;6097706;23;20211;-70
2024/01/13 03:05:11;;;;;;;1.20;1.10;;;2.40;99.90;;;2.53;100.00;101449.66;6096492;23;20620;-70
2024/01/13 03:07:40;;;;;;;0.80;0.70;;;2.40;99.90;;;2.48;100.00;101446.53;6097090;23;20218;-71
2024/01/13 03:10:09;;;;;;;1.65;1.55;;;2.40;99.90;;;2.43;100.00;101435.41;6096867;23;20223;-69
2024/01/13 03:12:39;;;;;;;1.73;0.70;;;2.30;99.90;;;2.50;100.00;101439.25;6099380;23;20223;-70
2024/01/13 03:15:10;;;;;;;1.65;1.33;;;2.40;99.90;;;2.32;100.00;101444.41;6108516;23;20152;-70
2024/01/13 03:17:39;;;;;;;0.82;0.65;;;2.30;99.90;;;2.35;100.00;101445.94;6098793;23;20152;-70
2024/01/13 03:20:10;;;;;;;3.20;2.53;;;2.30;99.90;;;2.41;100.00;101440.91;6097567;23;20163;-70
2024/01/13 03:22:39;;;;;;;0.95;0.70;;;2.30;99.90;;;2.39;100.00;101428.66;6096889;23;20163;-69
2024/01/13 03:25:09;;;;;;;1.65;1.15;;;2.30;99.90;;;2.44;100.00;101429.09;6096952;23;20559;-71
2024/01/13 03:27:39;;;;;;;1.85;1.30;;;2.30;99.90;;;2.38;100.00;101432.31;6096416;23;20174;-71
2024/01/13 03:30:09;;;;;;;8.02;2.22;;;2.30;99.90;;;2.40;100.00;101422.34;6096300;23;20629;-71
2024/01/13 03:32:37;;;;;;;4.57;2.97;;;2.30;99.90;;;2.32;100.00;101420.38;6096693;23;20171;-70
2024/01/13 03:35:07;;;;;;;0.80;0.50;;;2.30;99.90;;;2.35;100.00;101413.91;6096767;23;20587;-69
2024/01/13 03:37:36;;;;;;;1.08;0.98;;;2.30;99.90;;;2.34;100.00;101421.06;6096699;23;20660;-70
2024/01/13 03:40:06;;;;;;;3.65;2.83;;;2.30;99.90;;;2.35;100.00;101408.56;6119279;23;20230;-70
2024/01/13 03:42:35;;;;;;;2.25;2.15;;;2.20;99.90;;;2.43;100.00;101411.38;6097170;23;20167;-70
2024/01/13 03:45:06;;;;;;;1.08;0.90;;;2.30;99.90;;;2.42;100.00;101401.69;6096376;23;20222;-70
2024/01/13 03:47:34;;;;;;;1.77;1.67;;;2.30;99.90;;;2.43;100.00;101398.88;6096706;23;20172;-70
2024/01/13 03:50:03;;;;;;;1.45;1.33;;;2.30;99.90;;;2.48;100.00;101401.13;6119426;23;20522;-69
2024/01/13 03:52:32;;;;;;;3.42;2.33;;;2.30;99.90;;;2.52;100.00;101397.19;6096667;23;20155;-69
2024/01/13 03:55:00;;;;;;;1.23;1.13;;;2.40;99.90;;;2.46;100.00;101400.44;6096571;23;20250;-69
2024/01/13 03:57:29;;;;;;;0.80;0.50;;;2.40;99.90;;;2.35;100.00;101400.53;6096529;23;20152;-70
2024/01/13 03:59:58;;;;;;;1.20;0.90;;;2.30;99.90;;;2.29;100.00;101393.06;6096428;23;20151;-69
2024/01/13 04:02:28;;;;;;;4.70;2.08;;;2.20;99.90;;;2.28;100.00;101402.06;6096410;23;20168;-69
2024/01/13 04:04:57;;;;;;;3.47;1.63;;;2.20;99.90;;;2.27;100.00;101395.06;6096234;23;20172;-70
2024/01/13 04:07:26;;;;;;;2.95;1.90;;;2.20;99.90;;;2.34;100.00;101406.84;6096442;23;20186;-71
2024/01/13 04:09:55;;;;;;;1.58;1.42;;;2.20;99.90;;;2.22;100.00;101402.63;6096471;23;20159;-70
2024/01/13 04:12:24;;;;;;;3.10;2.30;;;2.20;99.90;;;2.22;100.00;101402.63;6096474;23;20174;-70
2024/01/13 04:14:52;;;;;;;1.27;1.05;;;2.20;99.90;;;2.21;100.00;101395.59;6096497;23;20160;-69
2024/01/13 04:17:21;;;;;;;1.45;1.35;;;2.10;99.90;;;2.13;100.00;101389.09;6096277;23;20187;-70
2024/01/13 04:19:51;;;;;;;2.88;2.42;;;2.10;99.90;;;2.05;100.00;101385.41;6096493;23;20160;-71
2024/01/13 04:22:20;;;;;;;1.23;1.13;;;2.10;99.90;;;2.12;100.00;101382.09;6096512;23;20223;-70
2024/01/13 04:24:48;;;;;;;1.20;1.10;;;2.10;99.90;;;2.21;100.00;101375.06;6096537;23;20195;-71
2024/01/13 04:27:17;;;;;;;0.90;0.80;;;2.10;99.90;;;2.24;100.00;101373.94;6096499;23;20199;-70
2024/01/13 04:29:46;;;;;;;2.08;1.90;;;2.10;99.90;;;2.13;100.00;101378.41;6097155;23;20155;-70
2024/01/13 04:32:14;;;;;;;0.80;0.70;;;2.10;99.90;;;2.32;100.00;101376.78;6098157;23;20230;-70
2024/01/13 04:34:43;;;;;;;0.90;0.80;;;2.20;99.90;;;2.23;100.00;101366.94;6098116;23;20156;-70
2024/01/13 04:37:13;;;;;;;2.72;1.67;;;2.10;99.90;;;2.36;100.00;101380.88;6098325;23;20190;-71
2024/01/13 04:39:42;;;;;;;1.88;1.60;;;2.20;99.90;;;2.35;100.00;101381.84;6098445;23;20172;-71
2024/01/13 04:42:11;;;;;;;0.80;0.60;;;2.30;99.90;;;2.32;100.00;101382.13;6098511;23;20163;-71
2024/01/13 04:44:43;;;;;;;3.70;1.83;;;2.20;99.90;;;2.19;100.00;101377.03;6098358;23;20246;-70
2024/01/13 04:47:12;;;;;;;0.90;0.80;;;2.20;99.90;;;2.25;100.00;101372.97;6098280;23;20187;-70
2024/01/13 04:49:40;;;;;;;0.90;0.77;;;2.10;99.90;;;2.15;100.00;101368.44;6098595;23;20158;-70
2024/01/13 04:52:09;;;;;;;2.08;1.98;;;2.10;99.90;;;2.16;100.00;101354.13;6098267;23;20180;-70
2024/01/13 04:54:39;;;;;;;1.73;1.63;;;2.10;99.90;;;2.22;100.00;101350.06;6097918;23;20240;-70
2024/01/13 04:57:08;;;;;;;1.40;1.30;;;2.20;99.90;;;2.12;100.00;101341.19;6098103;23;20298;-69
2024/01/13 04:59:36;;;;;;;3.40;1.02;;;2.10;99.90;;;2.16;100.00;101350.59;6098067;23;20167;-70
2024/01/13 05:02:05;;;;;;;1.60;1.50;;;2.10;99.90;;;2.12;100.00;101341.19;6105269;23;20187;-69
2024/01/13 05:04:33;;;;;;;0.90;0.70;;;2.10;99.90;;;2.22;100.00;101354.56;6101689;23;20176;-70
2024/01/13 05:07:02;;;;;;;1.42;1.30;;;2.10;99.90;;;2.17;100.00;101354.97;6101966;23;20216;-70
2024/01/13 05:09:31;;;;;;;1.00;0.90;;;2.10;99.90;;;2.17;100.00;101352.31;6102154;23;20676;-70
2024/01/13 05:12:01;;;;;;;3.15;2.72;;;2.10;99.90;;;2.21;100.00;101347.53;6102056;23;20534;-71
2024/01/13 05:14:32;;;;;;;1.00;0.90;;;2.20;99.90;;;2.12;100.00;101350.03;6124887;23;20175;-70
2024/01/13 05:17:05;;;;;;;4.03;1.25;;;2.10;99.90;;;2.16;100.00;101356.78;6100922;23;20270;-70
2024/01/13 05:19:34;;;;;;;0.80;0.60;;;2.10;99.90;;;2.13;100.00;101346.38;6101272;23;20503;-70
2024/01/13 05:22:03;;;;;;;0.80;0.70;;;2.10;99.90;;;2.09;100.00;101341.44;6100312;23;20190;-70
2024/01/13 05:24:31;;;;;;;1.10;1.00;;;2.10;99.90;;;2.05;100.00;101343.53;6098947;23;20222;-71
2024/01/13 05:27:02;;;;;;;2.22;1.23;;;2.00;99.90;;;2.06;100.00;101333.72;6100360;23;20203;-70
2024/01/13 05:29:31;;;;;;;1.33;1.20;;;2.00;99.90;;;2.10;100.00;101335.97;6100411;23;20156;-70
2024/01/13 05:32:00;;;;;;;1.98;1.38;;;2.00;99.90;;;2.10;100.00;101329.78;6100775;23;20156;-71
2024/01/13 05:34:28;;;;;;;1.98;1.23;;;2.10;99.90;;;2.07;100.00;101330.91;6100581;23;20148;-70
2024/01/13 05:36:57;;;;;;;1.35;0.75;;;2.00;99.90;;;2.04;100.00;101328.50;6100488;23;20215;-70
2024/01/13 05:39:26;;;;;;;2.63;1.40;;;2.00;99.90;;;2.09;100.00;101328.94;6100825;23;20576;-70
2024/01/13 05:41:54;;;;;;;2.22;2.03;;;2.00;99.90;;;2.15;100.00;101331.06;6104835;23;20167;-70
2024/01/13 05:44:24;;;;;;;1.98;1.40;;;2.10;99.90;;;2.10;100.00;101333.31;6102237;23;20156;-71
2024/01/13 05:46:53;;;;;;;1.27;1.17;;;2.10;99.90;;;2.14;100.00;101323.19;6099267;23;20191;-70
2024/01/13 05:49:21;;;;;;;0.80;0.50;;;2.10;99.90;;;2.24;100.00;101325.88;6098235;23;20172;-71
2024/01/13 05:51:50;;;;;;;1.48;1.33;;;2.10;99.90;;;2.25;100.00;101322.22;6098513;23;20162;-71
2024/01/13 05:54:19;;;;;;;1.25;1.05;;;2.10;99.90;;;2.24;100.00;101320.53;6099403;23;20148;-71
2024/01/13 05:56:47;;;;;;;1.45;1.08;;;2.10;99.90;;;2.18;100.00;101317.44;6099531;23;20203;-70
2024/01/13 05:59:16;;;;;;;4.50;2.03;;;2.10;99.90;;;2.22;100.00;101317.19;6098783;23;20628;-70
2024/01/13 06:01:46;;;;;;;6.28;2.42;;;2.10;99.90;;;2.26;100.00;101306.06;6097711;23;20207;-70
2024/01/13 06:04:16;;;;;;;1.67;1.55;;;2.10;99.90;;;2.24;100.00;101307.19;6097493;23;20171;-70
2024/01/13 06:06:45;;;;;;;2.65;1.25;;;2.20;99.90;;;2.25;100.00;101301.72;6097461;23;20191;-70
2024/01/13 06:09:14;;;;;;;1.40;1.30;;;2.20;99.90;;;2.25;100.00;101292.84;6097450;23;20174;-70
2024/01/13 06:11:42;;;;;;;2.70;1.92;;;2.20;99.90;;;2.35;100.00;101296.38;6097608;23;20160;-70
2024/01/13 06:14:11;;;;;;;0.93;0.82;;;2.20;99.90;;;2.40;100.00;101291.47;6120684;23;20167;-69
2024/01/13 06:16:40;;;;;;;0.80;0.50;;;2.30;99.90;;;2.31;100.00;101289.63;6096924;23;20184;-71
2024/01/13 06:19:10;;;;;;;10.38;2.38;;;2.20;99.90;;;2.39;100.00;101297.78;6096751;23;20257;-70
2024/01/13 06:21:43;;;;;;;5.28;3.08;;;2.30;99.90;;;2.28;100.00;101287.22;6097311;23;20596;-70
2024/01/13 06:24:12;;;;;;;1.67;1.58;;;2.30;99.90;;;2.24;100.00;101283.16;6097203;23;20155;-70
2024/01/13 06:26:41;;;;;;;2.28;1.17;;;2.20;99.90;;;2.21;100.00;101281.63;6096970;23;20219;-70
2024/01/13 06:29:11;;;;;;;1.42;1.33;;;2.20;99.90;;;2.19;100.00;101272.88;6097093;23;20152;-70
2024/01/13 06:31:39;;;;;;;2.08;1.70;;;2.10;99.90;;;2.27;100.00;101275.72;6096992;23;20171;-70
2024/01/13 06:34:10;;;;;;;2.55;1.27;;;2.20;99.90;;;2.29;100.00;101270.22;6097163;23;20159;-69
2024/01/13 06:36:39;;;;;;;5.15;4.70;;;2.20;99.90;;;2.25;100.00;101268.81;6096946;23;20711;-70
2024/01/13 06:39:08;;;;;;;1.92;1.80;;;2.20;99.90;;;2.18;100.00;101265.84;6096750;23;20676;-70
2024/01/13 06:41:37;;;;;;;1.98;1.77;;;2.10;99.90;;;2.40;100.00;101262.09;6096820;23;20242;-68
2024/01/13 06:44:06;;;;;;;1.65;1.55;;;2.20;99.90;;;2.39;100.00;101261.25;6097399;23;20155;-71
2024/01/13 06:46:35;;;;;;;1.25;1.08;;;2.20;99.90;;;2.34;100.00;101257.28;6097000;23;20723;-70
2024/01/13 06:49:04;;;;;;;3.15;2.95;;;2.20;99.90;;;2.42;100.00;101254.78;6097038;23;20186;-70
2024/01/13 06:51:34;;;;;;;2.40;2.30;;;2.30;99.90;;;2.49;100.00;101251.41;6097373;23;20639;-71
2024/01/13 06:54:03;;;;;;;3.50;1.70;;;2.30;99.90;;;2.30;100.00;101248.72;6097366;23;20156;-71
2024/01/13 06:56:32;;;;;;;3.70;2.47;;;2.30;99.90;;;2.17;100.00;101245.50;6096994;23;20179;-71
2024/01/13 06:59:01;;;;;;;1.33;1.23;;;2.20;99.90;;;2.14;100.00;101233.25;6120427;23;20160;-71
2024/01/13 07:01:30;;;;;;;2.08;1.88;;;2.10;99.90;;;2.18;100.00;101231.13;6096981;23;20210;-71
2024/01/13 07:03:59;;;;;;;1.63;1.45;;;2.10;99.90;;;2.32;100.00;101235.25;6097178;23;20191;-71
2024/01/13 07:06:28;;;;;;;4.70;2.08;;;2.20;99.90;;;2.37;100.00;101231.13;6119704;23;20207;-69
2024/01/13 07:08:58;;;;;;;1.67;1.20;;;2.20;99.90;;;2.36;100.00;101233.97;6097782;23;20172;-69
2024/01/13 07:11:27;;;;;;;1.25;1.15;;;2.30;99.90;;;2.39;100.00;101223.00;6099057;23;20151;-71
2024/01/13 07:13:55;;;;;;;2.15;1.85;;;2.30;99.90;;;2.40;100.00;101227.38;6096967;23;20174;-70
2024/01/13 07:16:24;;;;;;;1.42;1.33;;;2.30;99.90;;;2.40;100.00;101219.34;6096864;23;20186;-69
2024/01/13 07:18:52;;;;;;;1.65;1.35;;;2.30;99.90;;;2.31;100.00;101218.38;6096624;23;20473;-70
2024/01/13 07:21:24;;;;;;;7.72;2.22;;;2.30;99.90;;;2.44;100.00;101220.75;6097101;23;20235;-70
2024/01/13 07:23:52;;;;;;;1.00;0.90;;;2.30;99.90;;;2.47;100.00;101215.13;6096853;23;20242;-71
2024/01/13 07:26:22;;;;;;;2.03;1.58;;;2.30;99.90;;;2.49;100.00;101197.13;6096398;23;20770;-69
2024/01/13 07:28:51;;;;;;;2.30;1.77;;;2.40;99.90;;;2.41;100.00;101205.00;6096826;23;20530;-72
2024/01/13 07:31:20;;;;;;;3.80;3.08;;;2.30;99.90;;;2.42;100.00;101201.38;6097116;23;20593;-71
2024/01/13 07:33:49;;;;;;;1.45;1.35;;;2.30;99.90;;;2.41;100.00;101200.53;6096739;23;20544;-70
2024/01/13 07:36:18;;;;;;;7.28;3.00;;;2.30;99.90;;;2.50;100.00;101196.16;6096591;23;20278;-70
2024/01/13 07:38:47;;;;;;;1.27;1.17;;;2.40;99.90;;;2.49;100.00;101191.78;6096768;23;20671;-70
2024/01/13 07:41:16;;;;;;;0.98;0.88;;;2.40;99.90;;;2.58;100.00;101201.59;6096640;23;20167;-70
2024/01/13 07:43:47;;;;;;;1.20;1.02;;;2.40;99.90;;;2.45;100.00;101195.72;6096839;23;20226;-70
2024/01/13 07:46:16;;;;;;;1.00;0.80;;;2.40;99.90;;;2.44;100.00;101184.19;6096460;23;20704;-70
2024/01/13 07:48:45;;;;;;;6.18;1.13;;;2.40;99.90;;;2.63;100.00;101189.50;6096959;23;20183;-70
2024/01/13 07:51:14;;;;;;;5.05;1.83;;;2.50;99.90;;;2.60;100.00;101183.63;6097238;23;20199;-70
2024/01/13 07:53:56;;;;;;;2.60;1.38;;;2.50;99.90;;;2.58;100.00;101174.88;6103039;23;20210;-70
2024/01/13 07:56:25;;;;;;;4.13;1.02;;;2.50;99.90;;;2.61;100.00;101180.78;6103047;23;20180;-70
2024/01/13 07:58:57;;;;;;;1.33;0.75;;;2.50;99.90;;;2.45;100.00;101171.69;6098493;23;20215;-70
2024/01/13 08:01:26;;;;;;;0.80;0.50;;;2.40;99.90;;;2.55;100.00;101172.50;6098246;23;20156;-71
2024/01/13 08:04:06;;;;;;;0.80;0.50;;;2.40;99.90;;;2.65;100.00;101164.47;6096815;23;20164;-70
2024/01/13 08:06:36;;;;;;;0.80;0.60;;;2.50;99.90;;;2.59;100.00;101160.56;6098697;23;20211;-70
2024/01/13 08:09:05;;;;;;;1.42;1.30;;;2.50;99.90;;;2.67;100.00;101163.34;6098471;23;20163;-70
2024/01/13 08:11:34;;;;;;;6.15;1.50;;;2.50;99.90;;;2.72;100.00;101155.72;6098671;23;20590;-70
2024/01/13 08:14:10;;;;;;;1.60;1.13;;;2.50;99.90;;;2.72;100.00;101147.72;6098705;23;20158;-70
2024/01/13 08:16:39;;;;;;;1.58;1.48;;;2.60;99.90;;;2.57;100.00;101157.16;6098530;23;20213;-70
2024/01/13 08:19:09;;;;;;;1.20;1.10;;;2.50;99.90;;;2.63;100.00;101151.25;6098705;23;20163;-70
2024/01/13 08:21:38;;;;;;;0.80;0.80;;;2.50;99.90;;;2.62;100.00;101149.56;6098309;23;20601;-70
2024/01/13 08:24:09;;;;;;;2.22;1.77;;;2.50;99.90;;;2.53;100.00;101150.44;6098457;23;20482;-69
2024/01/13 08:26:40;;;;;;;3.30;1.17;;;2.40;99.90;;;2.57;100.00;101154.50;6098233;23;20183;-70
2024/01/13 08:29:10;;;;;;;1.15;0.90;;;2.50;99.90;;;2.62;100.00;101141.53;6098687;23;20183;-69
2024/01/13 08:31:39;;;;;;;1.98;1.88;;;2.50;99.90;;;2.75;100.00;101141.25;6099586;23;20231;-70
2024/01/13 08:34:10;;;;;;;1.73;1.27;;;2.60;99.90;;;2.72;100.00;101145.03;6101219;23;20152;-69
2024/01/13 08:36:42;;;;;;;3.03;2.72;;;2.60;99.90;;;2.75;100.00;101139.41;6100530;23;20195;-70
2024/01/13 08:39:11;;;;;;;0.80;0.55;;;2.60;99.90;;;2.76;100.00;101135.72;6102039;23;20207;-72
2024/01/13 08:41:40;;;;;;;3.55;1.63;;;2.60;99.90;;;2.89;100.00;101144.28;6099024;23;20164;-71
2024/01/13 08:44:11;;;;;;;1.50;0.82;;;2.70;99.90;;;2.79;100.00;101138.13;6098029;23;20543;-69
2024/01/13 08:46:40;;;;;;;0.90;0.65;;;2.70;99.90;;;2.91;100.00;101144.97;6097962;23;20184;-69
2024/01/13 08:49:09;;;;;;;1.30;0.75;;;2.80;99.90;;;3.06;100.00;101148.84;6098410;23;20163;-71
2024/01/13 08:51:38;;;;;;;1.70;0.95;;;2.90;99.90;;;2.74;100.00;101135.06;6098571;23;20167;-70
2024/01/13 08:54:08;;;;;;;2.38;2.17;;;2.70;99.90;;;2.81;100.00;101138.00;6098145;23;20156;-71
2024/01/13 08:56:38;;;;;;;1.50;1.40;;;2.70;99.90;;;2.71;100.00;101131.84;6097996;23;20258;-70
2024/01/13 08:59:11;;;;;;;1.42;0.70;;;2.60;99.90;;;2.79;100.00;101134.63;6098417;23;20155;-70
2024/01/13 09:01:40;;;;;;;2.05;1.85;;;2.70;99.90;;;2.74;100.00;101119.03;6098459;23;20147;-71
2024/01/13 09:04:10;;;;;;;2.35;1.67;;;2.60;99.90;;;2.78;100.00;101128.41;6098269;23;20183;-69
2024/01/13 09:06:40;;;;;;;0.80;0.65;;;2.70;99.90;;;2.73;100.00;101119.16;6096439;23;20219;-70
2024/01/13 09:09:10;;;;;;;1.55;1.45;;;2.60;99.90;;;2.68;100.00;101100.91;6098957;23;20191;-71
2024/01/13 09:11:42;;;;;;;0.90;0.70;;;2.60;99.90;;;2.82;100.00;101108.44;6097952;23;20175;-69
2024/01/13 09:14:16;;;;;;;1.15;0.70;;;2.60;99.90;;;3.11;100.00;101094.06;6097844;23;20227;-70
2024/01/13 09:16:45;;;;;;;0.88;0.65;;;2.80;99.90;;;3.22;100.00;101088.53;6096928;23;20509;-71
2024/01/13 09:19:15;;;;;;;0.80;0.60;;;2.90;99.90;;;3.24;100.00;101097.25;6098113;23;20194;-70
2024/01/13 09:21:44;;;;;;;1.10;0.80;;;3.00;99.90;;;3.14;100.00;101080.44;6098130;23;20168;-70
2024/01/13 09:24:16;;;;;;;1.50;1.38;;;3.00;99.90;;;3.37;100.00;101076.34;6097814;23;20151;-72
2024/01/13 09:26:48;;;;;;;1.40;1.08;;;3.10;99.90;;;3.58;100.00;101079.56;6097717;23;20187;-70
2024/01/13 09:29:20;;;;;;;1.55;1.35;;;3.30;99.90;;;3.57;100.00;101080.56;6098112;23;20252;-70
2024/01/13 09:31:50;;;;;;;0.80;0.68;;;3.30;99.90;;;3.50;100.00;101092.84;6098049;23;20159;-70
2024/01/13 09:34:20;;;;;;;0.80;0.50;;;3.30;99.90;;;3.52;100.00;101088.19;6098266;23;20183;-71
2024/01/13 09:36:50;;;;;;;1.08;0.98;;;3.30;99.90;;;3.59;100.00;101075.03;6097942;23;20180;-71
2024/01/13 09:39:21;;;;;;;1.10;0.98;;;3.40;99.90;;;3.48;100.00;101070.78;6098103;23;20243;-70
2024/01/13 09:41:55;;;;;;;1.60;0.88;;;3.30;99.90;;;3.60;100.00;101064.19;6098894;23;20488;-71
2024/01/13 09:44:29;;;;;;;0.80;0.60;;;3.30;99.90;;;3.45;100.00;101085.28;6098045;23;20235;-70
2024/01/13 09:47:00;;;;;;;0.80;0.55;;;3.30;61.10;;;3.27;100.00;101086.25;6097598;23;20210;-70
2024/01/13 09:49:31;;;;;;;2.25;1.02;;;3.20;1.00;;;3.26;100.00;101064.00;6097924;23;20170;-69
2024/01/13 09:52:06;;;;;;;0.95;0.85;;;3.20;99.40;;;3.43;100.00;101059.69;6097360;23;20182;-70
2024/01/13 09:54:35;;;;;;;2.75;1.88;;;3.20;99.90;;;3.45;100.00;101055.00;6097519;23;20163;-71
2024/01/13 09:57:05;;;;;;;1.35;0.95;;;3.30;99.90;;;3.26;100.00;101041.78;6097776;23;20190;-71
2024/01/13 09:59:38;;;;;;;1.10;0.95;;;3.20;33.90;;;3.36;100.00;101053.25;6097728;23;20210;-69
2024/01/13 10:02:13;;;;;;;1.27;1.08;;;3.20;81.10;;;3.41;100.00;101035.75;6097650;23;20160;-70
2024/01/13 10:04:48;;;;;;;4.78;1.50;;;3.20;95.90;;;3.37;100.00;101045.06;6097662;23;20230;-69
2024/01/13 10:07:18;;;;;;;1.65;1.33;;;3.20;99.90;;;3.30;100.00;101044.00;6097616;23;20267;-70
2024/01/13 10:09:56;;;;;;;1.40;1.05;;;3.10;99.90;;;3.26;100.00;101041.78;6101267;23;20167;-69
2024/01/13 10:12:39;;;;;;;0.90;0.70;;;3.10;99.90;;;3.55;100.00;101061.13;6104148;23;20210;-69
2024/01/13 10:15:15;;;;;;;1.17;0.95;;;3.20;99.90;;;3.47;100.00;101061.91;6096932;23;20211;-70
2024/01/13 10:17:44;;;;;;;1.70;1.58;;;3.30;99.90;;;3.44;100.00;101056.00;6098196;23;20544;-72
2024/01/13 10:20:15;;;;;;;1.20;0.90;;;3.30;99.90;;;3.18;100.00;101044.38;6096707;23;20211;-71
2024/01/13 10:22:44;;;;;;;1.60;1.50;;;3.10;12.60;;;4.30;100.00;101044.50;6097109;23;20526;-70
2024/01/13 10:25:12;;;;;;;1.40;1.10;;;3.80;99.90;;;4.77;100.00;101036.03;6096865;23;20159;-71
2024/01/13 10:27:42;;;;;;;1.25;1.15;;;4.20;99.90;;;4.44;100.00;101037.72;6096788;23;20305;-70